Latest Weather Observations for Roma

IDQ60801

Issued at 10:35 am EST Thursday 23 October 2014 (issued every 30 minutes, with the page automatically refreshed every 10 minutes)

About weather observations | Map of weather stations | Latest weather observations for QLD | Other Formats
Station Details ID: 043091 Name: ROMA AIRPORT Lat: -26.55 Lon: 148.77 Height: 307.38 m
Data from the previous 72 hours. | See also: Recent months at Roma
Date/Time
EST
Temp
°C
App
Temp
°C
Dew
Point
Rel
Hum
%
Delta-T
°C
Wind Press
QNH
hPa
Press
MSL
hPa
Rain
since 9 am
mm
Dir
 
Spd
km/h
Gust
km/h
Spd
kts
Gust
kts
23/10:30am 27.7 24.8 8.1 29 10.7 NE 13 19 7 10 1021.0 1019.8 0.0
23/10:00am 26.9 23.6 9.7 34 9.6 NNE 17 22 9 12 1021.4 1020.2 0.0
23/09:30am 25.8 22.4 10.4 38 8.7 N 19 26 10 14 1021.9 1020.7 0.0
23/09:00am 24.6 21.1 10.8 42 7.8 N 20 26 11 14 1022.0 1020.8 0.0
23/08:30am 23.7 19.6 11.4 46 7.0 N 24 32 13 17 1022.0 1020.8 0.0
23/08:00am 21.9 17.2 10.7 49 6.2 N 26 30 14 16 1022.0 1020.8 0.0
23/07:30am 21.1 16.5 11.2 53 5.5 N 26 32 14 17 1022.0 1020.8 0.0
23/07:00am 19.8 14.8 11.0 57 4.9 NNE 28 35 15 19 1021.8 1020.6 0.0
23/06:30am 18.1 12.9 10.2 60 4.3 NNE 28 35 15 19 1021.6 1020.4 0.0
23/06:00am 17.5 14.0 10.1 62 4.0 NNE 19 26 10 14 1021.6 1020.4 0.0
23/05:30am 16.9 13.2 9.6 62 3.9 N 19 24 10 13 1021.2 1020.0 0.0
23/05:00am 17.2 13.4 8.9 58 4.3 NNE 19 24 10 13 1020.7 1019.4 0.0
23/04:30am 17.6 14.0 8.5 55 4.8 NNE 17 24 9 13 1020.2 1019.0 0.0
23/04:00am 17.8 14.0 7.5 51 5.3 NNE 17 20 9 11 1019.8 1018.6 0.0
23/03:30am 18.9 14.8 7.7 48 5.8 NNE 19 24 10 13 1019.6 1018.4 0.0
23/03:00am 18.5 15.1 7.6 49 5.6 NNE 15 22 8 12 1019.6 1018.4 0.0
23/02:30am 17.9 14.8 7.3 50 5.4 NNE 13 17 7 9 1019.8 1018.6 0.0
23/02:00am 16.7 14.8 6.8 52 5.0 NNE 6 9 3 5 1019.9 1018.7 0.0
23/01:30am 16.8 14.3 6.6 51 5.1 NNE 9 9 5 5 1020.1 1018.9 0.0
23/01:00am 17.6 15.7 6.5 48 5.6 NE 6 7 3 4 1020.1 1018.9 0.0
23/12:30am 18.3 16.4 6.5 46 6.0 N 6 7 3 4 1020.4 1019.2 0.0
23/12:00am 18.1 15.9 6.0 45 6.0 NNE 7 9 4 5 1020.6 1019.3 0.0
 
Date/Time
EST
Temp
°C
App
Temp
°C
Dew
Point
Rel
Hum
%
Delta-T
°C
Wind Press
QNH
hPa
Press
MSL
hPa
Rain
since 9 am
mm
Dir
 
Spd
km/h
Gust
km/h
Spd
kts
Gust
kts
22/11:30pm 19.6 17.1 6.7 43 6.6 N 9 11 5 6 1020.8 1019.5 0.0
22/11:00pm 19.4 16.1 6.2 42 6.6 N 13 15 7 8 1020.9 1019.7 0.0
22/10:30pm 20.7 18.7 6.3 39 7.3 N 6 9 3 5 1021.1 1019.9 0.0
22/10:00pm 20.7 18.4 5.9 38 7.5 NNE 7 9 4 5 1021.1 1019.9 0.0
22/09:30pm 21.6 19.0 5.9 36 8.0 ENE 9 13 5 7 1021.0 1019.8 0.0
22/09:00pm 22.1 19.5 6.3 36 8.1 NNE 9 13 5 7 1021.0 1019.8 0.0
22/08:30pm 22.1 19.5 5.9 35 8.3 E 9 11 5 6 1020.7 1019.4 0.0
22/08:00pm 22.7 19.6 5.6 33 8.7 ESE 11 13 6 7 1020.3 1019.1 0.0
22/07:30pm 23.7 21.0 5.6 31 9.3 ESE 9 9 5 5 1020.0 1018.8 0.0
22/07:00pm 24.5 21.5 5.8 30 9.7 ESE 11 13 6 7 1019.7 1018.5 0.0
22/06:30pm 25.4 22.3 5.6 28 10.3 E 11 13 6 7 1019.5 1018.3 0.0
22/06:00pm 27.3 23.5 5.6 25 11.4 SE 15 19 8 10 1019.2 1018.0 0.0
22/05:30pm 28.2 24.5 6.3 25 11.7 ESE 15 20 8 11 1019.1 1017.9 0.0
22/05:00pm 29.1 24.9 5.9 23 12.3 E 17 26 9 14 1019.2 1018.0 0.0
22/04:30pm 29.2 25.7 7.2 25 12.0 ESE 15 20 8 11 1019.3 1018.1 0.0
22/04:00pm 29.9 26.1 7.7 25 12.2 SE 17 32 9 17 1019.3 1018.1 0.0
22/03:30pm 30.3 27.9 8.7 26 12.1 ESE 11 19 6 10 1019.4 1018.2 0.0
22/03:00pm 29.8 26.4 7.7 25 12.2 ESE 15 20 8 11 1019.7 1018.5 0.0
22/02:30pm 29.8 27.1 8.8 27 11.8 SSE 13 24 7 13 1020.0 1018.8 0.0
22/02:00pm 29.6 27.4 9.2 28 11.5 NNE 11 22 6 12 1020.6 1019.3 0.0
22/01:30pm 27.9 25.7 9.2 31 10.5 ENE 11 20 6 11 1021.0 1019.8 0.0
22/01:00pm 28.4 26.4 10.1 32 10.4 NE 11 19 6 10 1021.3 1020.1 0.0
22/12:30pm 27.6 26.2 10.8 35 9.6 NW 9 19 5 10 1021.9 1020.7 0.0
22/12:00pm 27.0 24.8 10.7 36 9.3 N 13 24 7 13 1022.4 1021.2 0.0
22/11:30am 26.5 24.0 11.0 38 8.9 NNW 15 26 8 14 1023.0 1021.8 0.0
22/11:00am 25.4 22.0 10.4 39 8.4 NE 19 28 10 15 1023.6 1022.4 0.0
22/10:30am 24.7 21.1 10.6 41 8.0 NE 20 28 11 15 1024.1 1022.9 0.0
22/10:23am 25.1 21.8 11.6 42 7.8 NNE 20 32 11 17 1024.2 1023.0 0.0
22/10:04am 23.8 19.7 11.5 46 7.0 N 24 33 13 18 1024.4 1023.2 0.0
22/10:00am 24.4 20.1 12.0 46 7.1 N 26 35 14 19 1024.4 1023.2 0.0
22/09:30am 23.5 19.5 11.9 48 6.7 NNE 24 32 13 17 1024.7 1023.5 0.0
22/09:00am 22.9 18.2 11.9 50 6.3 NNE 28 37 15 20 1024.9 1023.7 0.0
22/08:30am 22.2 17.5 11.9 52 5.9 NNE 28 37 15 20 1024.9 1023.7 0.0
22/08:00am 20.8 15.9 11.4 55 5.3 NNE 28 37 15 20 1024.7 1023.5 0.0
22/07:30am 20.6 16.0 12.3 59 4.7 NE 28 33 15 18 1024.7 1023.5 0.0
22/07:00am 19.9 15.3 12.4 62 4.2 NE 28 41 15 22 1024.3 1023.1 0.0
22/06:30am 19.0 15.2 12.3 65 3.8 NNE 24 33 13 18 1024.1 1022.9 0.0
22/06:00am 18.0 15.1 12.2 69 3.2 NE 19 24 10 13 1023.8 1022.7 0.0
22/05:30am 17.6 14.8 12.5 72 2.9 NE 19 26 10 14 1023.5 1022.3 0.0
22/05:00am 17.7 14.8 12.4 71 3.0 NE 19 26 10 14 1023.2 1022.0 0.0
22/04:30am 18.1 14.6 12.3 69 3.3 NE 22 32 12 17 1022.9 1021.7 0.0
22/04:00am 18.6 15.2 12.4 67 3.5 NNE 22 30 12 16 1022.7 1021.5 0.0
22/03:30am 18.8 16.3 12.3 66 3.7 NE 17 22 9 12 1022.8 1021.6 0.0
22/03:00am 19.4 16.3 12.2 63 4.1 NE 20 28 11 15 1022.9 1021.7 0.0
22/02:30am 19.6 16.6 11.9 61 4.3 NE 19 26 10 14 1023.0 1021.8 0.0
22/02:00am 19.7 17.0 11.7 60 4.5 NNE 17 20 9 11 1023.2 1022.0 0.0
22/01:30am 20.3 17.6 11.8 58 4.8 ENE 17 20 9 11 1023.7 1022.6 0.0
22/01:00am 20.6 17.8 11.5 56 5.1 NE 17 26 9 14 1023.6 1022.4 0.0
22/12:30am 21.1 17.7 11.2 53 5.5 NNE 20 28 11 15 1023.6 1022.4 0.0
22/12:00am 21.6 17.8 11.0 51 5.9 NNE 22 30 12 16 1023.8 1022.7 0.0
 
Date/Time
EST
Temp
°C
App
Temp
°C
Dew
Point
Rel
Hum
%
Delta-T
°C
Wind Press
QNH
hPa
Press
MSL
hPa
Rain
since 9 am
mm
Dir
 
Spd
km/h
Gust
km/h
Spd
kts
Gust
kts
21/11:30pm 22.0 18.6 11.1 50 6.1 NNE 20 28 11 15 1024.0 1022.8 0.0
21/11:00pm 22.4 19.5 10.9 48 6.4 NNE 17 26 9 14 1024.1 1022.9 0.0
21/10:30pm 23.2 18.6 10.9 46 6.9 NE 26 37 14 20 1024.2 1023.0 0.0
21/10:00pm 23.8 19.9 10.8 44 7.3 NE 22 30 12 16 1024.2 1023.0 0.0
21/09:30pm 24.0 20.9 10.3 42 7.7 ENE 17 22 9 12 1024.0 1022.8 0.0
21/09:00pm 24.6 21.2 9.3 38 8.4 ENE 17 22 9 12 1023.6 1022.4 0.0
21/08:30pm 24.0 21.3 8.8 38 8.3 E 13 17 7 9 1023.1 1021.9 0.0
21/08:00pm 24.1 21.5 7.7 35 8.7 E 11 13 6 7 1022.8 1021.6 0.0
21/07:30pm 24.8 21.6 7.0 32 9.4 E 13 15 7 8 1022.7 1021.5 0.0
21/07:00pm 25.3 22.0 6.5 30 9.9 E 13 15 7 8 1022.4 1021.2 0.0
21/06:30pm 27.2 23.6 6.6 27 11.0 ESE 15 20 8 11 1022.0 1020.8 0.0
21/06:00pm 28.7 24.6 6.1 24 12.0 E 17 22 9 12 1021.6 1020.4 0.0
21/05:30pm 29.8 25.8 6.5 23 12.6 ESE 17 24 9 13 1021.3 1020.1 0.0
21/05:00pm 30.4 26.3 6.3 22 13.0 E 17 24 9 13 1021.0 1019.8 0.0
21/04:30pm 31.2 26.7 6.3 21 13.5 ESE 19 24 10 13 1020.9 1019.7 0.0
21/04:00pm 31.1 26.8 6.9 22 13.2 E 19 28 10 15 1020.9 1019.7 0.0
21/03:30pm 31.3 26.7 6.4 21 13.5 E 20 30 11 16 1021.1 1019.9 0.0
21/03:00pm 31.0 28.8 6.1 21 13.4 NNE 7 15 4 8 1021.4 1020.2 0.0
21/02:30pm 30.4 27.5 6.3 22 13.0 ESE 11 22 6 12 1021.7 1020.5 0.0
21/02:00pm 30.4 26.5 7.0 23 12.7 ESE 17 19 9 10 1022.1 1020.9 0.0
21/01:30pm 31.1 26.7 7.5 23 13.1 E 20 28 11 15 1022.7 1021.5 0.0
21/01:00pm 29.5 24.9 5.6 22 12.7 ENE 19 28 10 15 1023.3 1022.1 0.0
21/12:30pm 29.3 24.7 6.7 24 12.2 E 20 32 11 17 1023.8 1022.7 0.0
21/12:00pm 29.3 25.7 6.7 24 12.2 NNE 15 41 8 22 1024.5 1023.3 0.0
21/11:30am 28.0 21.9 6.7 26 11.4 ENE 28 35 15 19 1025.0 1023.8 0.0
21/11:00am 26.9 22.3 6.3 27 10.9 NE 20 33 11 18 1025.6 1024.4 0.0
21/10:30am 25.7 20.0 6.8 30 10.0 NE 26 37 14 20 1026.0 1024.8 0.0
21/10:00am 25.1 19.9 7.3 32 9.5 ENE 24 30 13 16 1026.3 1025.1 0.0
21/09:30am 24.4 17.7 7.5 34 9.0 ENE 32 35 17 19 1026.6 1025.5 0.0
21/09:00am 23.6 18.3 8.5 38 8.1 NNE 26 35 14 19 1026.7 1025.6 0.0
21/08:30am 22.7 17.5 8.8 41 7.5 NE 26 35 14 19 1026.9 1025.8 0.0
21/08:00am 21.6 17.0 9.5 46 6.6 NNE 24 33 13 18 1026.9 1025.8 0.0
21/07:30am 20.2 14.9 10.0 52 5.6 NNE 28 37 15 20 1026.8 1025.7 0.0
21/07:00am 19.1 13.9 10.1 56 4.9 NNE 28 39 15 21 1026.5 1025.3 0.0
21/06:30am 18.5 14.8 10.3 59 4.5 NE 20 30 11 16 1026.2 1025.0 0.0
21/06:00am 17.5 14.2 9.4 59 4.3 NE 17 20 9 11 1026.0 1024.8 0.0
21/05:30am 17.5 13.2 9.4 59 4.3 NE 22 33 12 18 1025.7 1024.5 0.0
21/05:00am 17.9 13.5 9.0 56 4.7 ENE 22 30 12 16 1025.3 1024.1 0.0
21/04:30am 18.6 13.4 8.8 53 5.2 NE 26 37 14 20 1024.7 1023.5 0.0
21/04:00am 19.0 14.9 8.6 51 5.5 NE 20 26 11 14 1024.2 1023.0 0.0
21/03:30am 19.5 15.0 8.5 49 5.8 NE 22 30 12 16 1024.0 1022.8 0.0
21/03:00am 20.2 14.8 8.2 46 6.3 NE 26 35 14 19 1023.6 1022.4 0.0
21/02:30am 20.7 15.7 8.0 44 6.7 NE 24 39 13 21 1023.3 1022.1 0.0
21/02:00am 21.6 14.9 7.4 40 7.4 NE 32 46 17 25 1023.1 1021.9 0.0
21/01:30am 22.1 15.6 6.7 37 8.0 NNE 30 46 16 25 1022.9 1021.7 0.0
21/01:23am 22.3 16.3 6.9 37 8.0 NNE 28 46 15 25 1022.9 1021.7 0.0
21/01:00am 23.0 16.8 6.3 34 8.6 NE 28 43 15 23 1022.9 1021.7 0.0
21/12:30am 23.4 18.6 4.9 30 9.4 NE 19 32 10 17 1022.7 1021.5 0.0
21/12:00am 24.1 17.8 5.5 30 9.5 ENE 28 43 15 23 1022.9 1021.7 0.0
 
Date/Time
EST
Temp
°C
App
Temp
°C
Dew
Point
Rel
Hum
%
Delta-T
°C
Wind Press
QNH
hPa
Press
MSL
hPa
Rain
since 9 am
mm
Dir
 
Spd
km/h
Gust
km/h
Spd
kts
Gust
kts
20/11:52pm 24.1 18.2 7.3 34 8.9 NE 28 43 15 23 1022.9 1021.7 0.0
20/11:30pm 20.6 18.4 5.4 37 7.6 N 6 7 3 4 1022.4 1021.2 0.0
20/11:00pm 19.5 17.2 4.8 38 7.2 NNE 6 7 3 4 1022.4 1021.2 0.0
20/10:30pm 21.1 18.7 5.1 35 8.0 NNE 7 7 4 4 1022.4 1021.2 0.0
20/10:00pm 21.9 20.8 4.9 33 8.5 CALM 0 0 0 0 1022.5 1021.3 0.0
20/09:30pm 22.1 19.6 4.6 32 8.7 NNE 7 9 4 5 1022.3 1021.1 0.0
20/09:00pm 22.4 20.5 4.9 32 8.8 NNE 4 7 2 4 1022.2 1021.0 0.0
20/08:30pm 22.3 19.6 3.9 30 9.1 E 7 9 4 5 1022.0 1020.8 0.0
20/08:00pm 23.1 20.6 4.6 30 9.3 ESE 7 11 4 6 1021.8 1020.6 0.0
20/07:30pm 24.3 20.9 4.1 27 10.1 ESE 11 13 6 7 1021.5 1020.3 0.0
20/07:00pm 25.2 21.8 3.8 25 10.7 ESE 11 13 6 7 1021.2 1020.0 0.0
20/06:30pm 26.9 23.1 4.0 23 11.7 SE 13 15 7 8 1020.9 1019.7 0.0
20/06:00pm 28.8 25.1 4.3 21 12.6 SE 13 17 7 9 1020.6 1019.3 0.0
20/05:30pm 30.3 26.2 4.1 19 13.6 ESE 15 22 8 12 1020.2 1019.0 0.0
20/05:00pm 31.0 25.9 3.9 18 14.1 ESE 20 26 11 14 1019.9 1018.7 0.0
20/04:30pm 31.2 26.1 4.1 18 14.2 SSE 20 30 11 16 1019.7 1018.5 0.0
20/04:00pm 31.1 27.8 4.8 19 13.9 ENE 11 19 6 10 1019.7 1018.5 0.0
20/03:30pm 31.2 26.4 4.9 19 13.9 SSE 19 30 10 16 1019.8 1018.6 0.0
20/03:00pm 31.1 28.0 5.5 20 13.7 E 11 19 6 10 1020.0 1018.8 0.0
20/02:30pm 31.8 27.1 5.3 19 14.2 E 19 24 10 13 1020.3 1019.1 0.0
20/02:00pm 31.7 27.6 6.0 20 13.9 S 17 26 9 14 1020.8 1019.5 0.0
20/01:30pm 30.8 26.7 6.0 21 13.4 E 17 26 9 14 1021.4 1020.2 0.0
20/01:00pm 30.8 26.1 6.0 21 13.3 SE 20 30 11 16 1021.8 1020.6 0.0
20/12:30pm 29.9 25.7 5.9 22 12.8 SSE 17 26 9 14 1022.5 1021.3 0.0
20/12:00pm 29.3 25.9 6.0 23 12.4 SSE 13 24 7 13 1023.0 1021.8 0.0
20/11:30am 29.5 27.2 7.4 25 12.1 E 9 24 5 13 1023.4 1022.2 0.0
20/11:00am 27.5 24.7 8.4 30 10.5 E 13 20 7 11 1024.1 1022.9 0.0

Other Formats:

Comma delimited format used in spreadsheet applications
http://www.bom.gov.au/fwo/IDQ60801/IDQ60801.94515.axf

JavaScript Object Notation format (JSON) in row-major order
http://www.bom.gov.au/fwo/IDQ60801/IDQ60801.94515.json